| time (UTC) | temp F | wind direction | speed MPH | gust MPH | rain 1hr in | rain 24hr in | rain mn in | humidity % | barometer mb |
| 20260510120405 | 64 | 27 | 0.0 | 0.0 | 0.00 | 0.00 | 0.00 | 77 | 1016.2 |
| 20260510115901 | 64 | 22 | 0.0 | 0.0 | 0.00 | 0.00 | 0.00 | 78 | 1015.9 |
| 20260510115358 | 64 | 38 | 1.0 | 1.0 | 0.00 | 0.00 | 0.00 | 78 | 1015.9 |
| 20260510114854 | 64 | 34 | 0.0 | 0.0 | 0.00 | 0.00 | 0.00 | 78 | 1015.6 |
| 20260510114351 | 63 | 26 | 0.0 | 0.0 | 0.00 | 0.00 | 0.00 | 79 | 1015.7 |
| 20260510113851 | 63 | 23 | 0.0 | 0.0 | 0.00 | 0.00 | 0.00 | 80 | 1015.5 |
| 20260510113347 | 63 | 20 | 0.0 | 0.0 | 0.00 | 0.00 | 0.00 | 79 | 1015.4 |
| 20260510112844 | 63 | 20 | 0.0 | 0.0 | 0.00 | 0.00 | 0.00 | 79 | 1015.4 |
| 20260510112342 | 63 | 20 | 0.0 | 0.0 | 0.00 | 0.00 | 0.00 | 79 | 1015.3 |
| 20260510111837 | 64 | 21 | 0.0 | 0.0 | 0.00 | 0.00 | 0.00 | 78 | 1015.3 |
| 20260510111334 | 64 | 36 | 0.0 | 0.0 | 0.00 | 0.00 | 0.00 | 78 | 1015.2 |
| 20260510110834 | 64 | 22 | 0.0 | 0.0 | 0.00 | 0.00 | 0.00 | 77 | 1014.9 |
| 20260510110332 | 64 | 22 | 0.0 | 0.0 | 0.00 | 0.00 | 0.00 | 77 | 1014.8 |
| 20260510105827 | 64 | 23 | 0.0 | 0.0 | 0.00 | 0.00 | 0.00 | 77 | 1014.8 |
| 20260510105327 | 64 | 19 | 0.0 | 0.0 | 0.00 | 0.00 | 0.00 | 76 | 1014.8 |
| 20260510104824 | 64 | 37 | 1.0 | 1.0 | 0.00 | 0.00 | 0.00 | 76 | 1014.7 |
| 20260510104321 | 64 | 23 | 1.0 | 1.0 | 0.00 | 0.00 | 0.00 | 76 | 1014.7 |
| 20260510103817 | 64 | 20 | 0.0 | 0.0 | 0.00 | 0.00 | 0.00 | 75 | 1014.4 |
| 20260510103314 | 64 | 29 | 0.0 | 0.0 | 0.00 | 0.00 | 0.00 | 75 | 1014.5 |
| 20260510102809 | 65 | 22 | 0.0 | 0.0 | 0.00 | 0.00 | 0.00 | 74 | 1014.6 |
| 20260510102306 | 65 | 22 | 0.0 | 0.0 | 0.00 | 0.00 | 0.00 | 74 | 1014.7 |
| 20260510101803 | 65 | 24 | 0.0 | 0.0 | 0.00 | 0.00 | 0.00 | 73 | 1014.5 |
| 20260510101301 | 65 | 26 | 0.0 | 0.0 | 0.00 | 0.00 | 0.00 | 73 | 1014.4 |
| 20260510100756 | 66 | 31 | 1.0 | 1.0 | 0.00 | 0.00 | 0.00 | 72 | 1014.2 |
| 20260510100255 | 66 | 51 | 0.0 | 1.0 | 0.00 | 0.00 | 0.00 | 72 | 1014.3 |
| 20260510095750 | 66 | 28 | 1.0 | 1.0 | 0.00 | 0.00 | 0.00 | 71 | 1014.2 |
| 20260510095245 | 66 | 33 | 0.0 | 0.0 | 0.00 | 0.00 | 0.00 | 70 | 1014.2 |
| 20260510094744 | 66 | 57 | 2.0 | 3.0 | 0.00 | 0.00 | 0.00 | 70 | 1014.2 |
| 20260510094240 | 66 | 34 | 1.0 | 1.0 | 0.00 | 0.00 | 0.00 | 70 | 1014.1 |
| 20260510093736 | 66 | 20 | 1.0 | 1.0 | 0.00 | 0.00 | 0.00 | 70 | 1014.2 |
| 20260510093233 | 66 | 48 | 1.0 | 1.0 | 0.00 | 0.00 | 0.00 | 70 | 1014.3 |
| 20260510092729 | 66 | 28 | 1.0 | 1.0 | 0.00 | 0.00 | 0.00 | 70 | 1014.3 |
| 20260510092225 | 65 | 33 | 1.0 | 1.0 | 0.00 | 0.00 | 0.00 | 71 | 1014.2 |
| 20260510091721 | 65 | 17 | 0.0 | 0.0 | 0.00 | 0.00 | 0.00 | 72 | 1014.0 |
| 20260510091218 | 65 | 12 | 0.0 | 0.0 | 0.00 | 0.00 | 0.00 | 71 | 1013.9 |
| 20260510090714 | 66 | 14 | 0.0 | 0.0 | 0.00 | 0.00 | 0.00 | 71 | 1013.8 |
| 20260510090212 | 66 | 9 | 0.0 | 0.0 | 0.00 | 0.00 | 0.00 | 71 | 1013.9 |
| 20260510085706 | 66 | 16 | 0.0 | 0.0 | 0.00 | 0.00 | 0.00 | 70 | 1013.4 |
| 20260510085202 | 66 | 14 | 0.0 | 0.0 | 0.00 | 0.00 | 0.00 | 69 | 1013.3 |
| 20260510084658 | 67 | 20 | 0.0 | 0.0 | 0.00 | 0.00 | 0.00 | 69 | 1013.3 |
| 20260510084155 | 67 | 15 | 0.0 | 0.0 | 0.00 | 0.00 | 0.00 | 68 | 1013.2 |
| 20260510083652 | 67 | 15 | 0.0 | 0.0 | 0.00 | 0.00 | 0.00 | 68 | 1013.1 |
| 20260510083149 | 67 | 32 | 0.0 | 0.0 | 0.00 | 0.00 | 0.00 | 68 | 1013.0 |
| 20260510082645 | 67 | 15 | 0.0 | 0.0 | 0.00 | 0.00 | 0.00 | 68 | 1013.0 |
| 20260510082140 | 67 | 19 | 0.0 | 1.0 | 0.00 | 0.00 | 0.00 | 67 | 1012.5 |
| 20260510081635 | 67 | 16 | 0.0 | 0.0 | 0.00 | 0.00 | 0.00 | 67 | 1012.3 |
| 20260510081132 | 68 | 15 | 0.0 | 0.0 | 0.00 | 0.00 | 0.00 | 67 | 1012.3 |
| 20260510080631 | 68 | 30 | 1.0 | 1.0 | 0.00 | 0.00 | 0.00 | 66 | 1012.5 |
| 20260510080128 | 68 | 12 | 0.0 | 0.0 | 0.00 | 0.00 | 0.00 | 67 | 1012.3 |
| 20260510075625 | 68 | 11 | 0.0 | 0.0 | 0.00 | 0.00 | 0.00 | 67 | 1012.4 |
| 20260510075122 | 68 | 16 | 0.0 | 0.0 | 0.00 | 0.00 | 0.00 | 66 | 1012.4 |
| 20260510074619 | 68 | 25 | 0.0 | 1.0 | 0.00 | 0.00 | 0.00 | 66 | 1011.9 |
| 20260510074114 | 68 | 352 | 1.0 | 2.0 | 0.00 | 0.00 | 0.00 | 65 | 1011.9 |
| 20260510073605 | 68 | 292 | 2.0 | 4.0 | 0.00 | 0.00 | 0.00 | 65 | 1011.0 |
| 20260510073102 | 68 | 132 | 2.0 | 2.0 | 0.00 | 0.00 | 0.00 | 65 | 1010.7 |
| 20260510072559 | 68 | 177 | 2.0 | 3.0 | 0.00 | 0.00 | 0.00 | 65 | 1010.3 |
| 20260510072054 | 69 | 1 | 2.0 | 3.0 | 0.00 | 0.00 | 0.00 | 63 | 1011.2 |
| 20260510071551 | 69 | 146 | 3.0 | 3.0 | 0.00 | 0.00 | 0.00 | 61 | 1012.4 |
| 20260510071049 | 69 | 326 | 2.0 | 2.0 | 0.00 | 0.00 | 0.00 | 60 | 1012.9 |
| 20260510070545 | 69 | 328 | 2.0 | 3.0 | 0.00 | 0.00 | 0.00 | 60 | 1013.5 |
| 20260510070043 | 69 | 302 | 5.0 | 7.0 | 0.00 | 0.00 | 0.00 | 59 | 1013.2 |
| 20260510065538 | 69 | 307 | 2.0 | 3.0 | 0.00 | 0.00 | 0.00 | 60 | 1012.9 |
| 20260510065034 | 70 | 325 | 3.0 | 4.0 | 0.00 | 0.00 | 0.00 | 59 | 1013.0 |
| 20260510064531 | 70 | 310 | 2.0 | 3.0 | 0.00 | 0.00 | 0.00 | 59 | 1012.9 |
| 20260510064028 | 70 | 272 | 1.0 | 2.0 | 0.00 | 0.00 | 0.00 | 61 | 1013.0 |
| 20260510063525 | 69 | 261 | 3.0 | 3.0 | 0.00 | 0.00 | 0.00 | 62 | 1013.6 |
| 20260510063022 | 69 | 341 | 1.0 | 1.0 | 0.00 | 0.00 | 0.00 | 67 | 1014.1 |
| 20260510062518 | 69 | 354 | 0.0 | 1.0 | 0.00 | 0.00 | 0.00 | 67 | 1014.5 |
| 20260510062013 | 69 | 2 | 0.0 | 0.0 | 0.00 | 0.00 | 0.00 | 66 | 1014.5 |
| 20260510061510 | 69 | 16 | 0.0 | 0.0 | 0.00 | 0.00 | 0.00 | 65 | 1014.6 |
| 20260510061007 | 69 | 16 | 0.0 | 0.0 | 0.00 | 0.00 | 0.00 | 66 | 1014.6 |
| 20260510060503 | 69 | 298 | 1.0 | 2.0 | 0.00 | 0.00 | 0.00 | 64 | 1014.8 |
| 20260510055959 | 69 | 10 | 0.0 | 0.0 | 0.00 | 0.00 | 0.00 | 65 | 1014.8 |
| 20260510055455 | 69 | 20 | 0.0 | 0.0 | 0.00 | 0.00 | 0.00 | 65 | 1014.7 |
| 20260510054954 | 69 | 14 | 0.0 | 0.0 | 0.00 | 0.00 | 0.00 | 64 | 1014.7 |
| 20260510054448 | 70 | 20 | 0.0 | 0.0 | 0.00 | 0.00 | 0.00 | 63 | 1014.8 |
| 20260510053944 | 70 | 22 | 0.0 | 0.0 | 0.00 | 0.00 | 0.00 | 62 | 1014.9 |
| 20260510053439 | 70 | 20 | 0.0 | 0.0 | 0.00 | 0.00 | 0.00 | 62 | 1015.2 |
| 20260510052936 | 70 | 21 | 0.0 | 0.0 | 0.00 | 0.00 | 0.00 | 62 | 1015.3 |
| 20260510052432 | 70 | 21 | 0.0 | 0.0 | 0.00 | 0.00 | 0.00 | 62 | 1015.2 |
| 20260510051928 | 70 | 15 | 0.0 | 0.0 | 0.00 | 0.00 | 0.00 | 62 | 1015.2 |
| 20260510051425 | 70 | 14 | 0.0 | 0.0 | 0.00 | 0.00 | 0.00 | 62 | 1015.2 |
| 20260510050921 | 70 | 12 | 0.0 | 0.0 | 0.00 | 0.00 | 0.00 | 62 | 1015.0 |
| 20260510050418 | 70 | 10 | 0.0 | 0.0 | 0.00 | 0.00 | 0.00 | 62 | 1015.3 |
| 20260510045915 | 70 | 12 | 0.0 | 1.0 | 0.00 | 0.00 | 0.00 | 62 | 1015.2 |
| 20260510045412 | 71 | 353 | 0.0 | 1.0 | 0.00 | 0.00 | 0.00 | 61 | 1015.0 |
| 20260510044909 | 71 | 10 | 1.0 | 1.0 | 0.00 | 0.00 | 0.00 | 60 | 1014.8 |
| 20260510044406 | 71 | 20 | 0.0 | 0.0 | 0.00 | 0.00 | 0.00 | 59 | 1014.6 |
| 20260510043902 | 71 | 29 | 0.0 | 0.0 | 0.00 | 0.00 | 0.00 | 58 | 1014.3 |
| 20260510043358 | 71 | 29 | 0.0 | 0.0 | 0.00 | 0.00 | 0.00 | 58 | 1014.1 |
| 20260510042857 | 71 | 29 | 0.0 | 0.0 | 0.00 | 0.00 | 0.00 | 58 | 1013.8 |
| 20260510042352 | 71 | 29 | 0.0 | 0.0 | 0.00 | 0.00 | 0.00 | 57 | 1013.8 |
| 20260510041848 | 71 | 29 | 0.0 | 0.0 | 0.00 | 0.00 | 0.00 | 56 | 1013.5 |
| 20260510041346 | 72 | 29 | 0.0 | 0.0 | 0.00 | 0.00 | 0.00 | 56 | 1013.5 |
| 20260510040843 | 71 | 29 | 0.0 | 0.0 | 0.00 | 0.00 | 0.00 | 56 | 1013.3 |
| 20260510040340 | 72 | 29 | 0.0 | 0.0 | 0.00 | 0.00 | 0.00 | 56 | 1013.3 |
| 20260510035835 | 72 | 29 | 0.0 | 0.0 | 0.00 | 0.00 | 0.00 | 56 | 1013.1 |
| 20260510035331 | 73 | 29 | 0.0 | 0.0 | 0.00 | 0.00 | 0.00 | 55 | 1013.4 |
| 20260510034827 | 73 | 29 | 0.0 | 0.0 | 0.00 | 0.00 | 0.00 | 54 | 1013.1 |
| 20260510034325 | 73 | 27 | 0.0 | 0.0 | 0.00 | 0.00 | 0.00 | 53 | 1012.9 |
| 20260510033821 | 73 | 26 | 0.0 | 0.0 | 0.00 | 0.00 | 0.00 | 52 | 1013.2 |
| 20260510033318 | 73 | 39 | 1.0 | 1.0 | 0.00 | 0.00 | 0.00 | 52 | 1013.2 |
| 20260510032815 | 72 | 39 | 1.0 | 1.0 | 0.00 | 0.00 | 0.00 | 53 | 1013.1 |
| 20260510032312 | 72 | 25 | 0.0 | 0.0 | 0.00 | 0.00 | 0.00 | 54 | 1013.1 |
| 20260510031807 | 72 | 24 | 0.0 | 0.0 | 0.00 | 0.00 | 0.00 | 54 | 1013.4 |
| 20260510031303 | 72 | 24 | 0.0 | 0.0 | 0.00 | 0.00 | 0.00 | 55 | 1013.3 |
| 20260510030803 | 72 | 24 | 0.0 | 0.0 | 0.00 | 0.00 | 0.00 | 55 | 1013.4 |
| 20260510030300 | 72 | 24 | 0.0 | 0.0 | 0.00 | 0.00 | 0.00 | 54 | 1013.3 |
| 20260510025757 | 72 | 24 | 0.0 | 0.0 | 0.00 | 0.00 | 0.00 | 55 | 1013.3 |
| 20260510025255 | 72 | 24 | 0.0 | 0.0 | 0.00 | 0.00 | 0.00 | 53 | 1013.1 |
| 20260510024751 | 72 | 24 | 0.0 | 0.0 | 0.00 | 0.00 | 0.00 | 52 | 1013.0 |
| 20260510024249 | 72 | 24 | 0.0 | 0.0 | 0.00 | 0.00 | 0.00 | 52 | 1012.9 |
| 20260510023744 | 72 | 24 | 0.0 | 0.0 | 0.00 | 0.00 | 0.00 | 50 | 1012.7 |
| 20260510023241 | 73 | 24 | 0.0 | 0.0 | 0.00 | 0.00 | 0.00 | 49 | 1012.5 |
| 20260510022737 | 73 | 24 | 0.0 | 0.0 | 0.00 | 0.00 | 0.00 | 48 | 1012.2 |
| 20260510022237 | 73 | 25 | 0.0 | 0.0 | 0.00 | 0.00 | 0.00 | 46 | 1012.0 |
| 20260510021732 | 74 | 23 | 0.0 | 0.0 | 0.00 | 0.00 | 0.00 | 46 | 1011.8 |
| 20260510021230 | 74 | 26 | 0.0 | 0.0 | 0.00 | 0.00 | 0.00 | 45 | 1011.5 |
| 20260510020730 | 73 | 17 | 0.0 | 0.0 | 0.00 | 0.00 | 0.00 | 46 | 1011.6 |
| 20260510020225 | 73 | 17 | 0.0 | 0.0 | 0.00 | 0.00 | 0.00 | 47 | 1011.3 |
| 20260510015721 | 73 | 17 | 0.0 | 0.0 | 0.00 | 0.00 | 0.00 | 48 | 1011.3 |
| 20260510015218 | 73 | 17 | 0.0 | 0.0 | 0.00 | 0.00 | 0.00 | 47 | 1011.3 |
| 20260510014713 | 74 | 17 | 0.0 | 0.0 | 0.00 | 0.00 | 0.00 | 47 | 1011.2 |
| 20260510014211 | 74 | 17 | 0.0 | 0.0 | 0.00 | 0.00 | 0.00 | 46 | 1011.0 |
| 20260510013706 | 75 | 30 | 0.0 | 0.0 | 0.00 | 0.00 | 0.00 | 46 | 1011.0 |
| 20260510013202 | 76 | 41 | 1.0 | 1.0 | 0.00 | 0.00 | 0.00 | 44 | 1010.7 |
| 20260510012701 | 77 | 27 | 0.0 | 0.0 | 0.00 | 0.00 | 0.00 | 43 | 1010.7 |
| 20260510012157 | 77 | 41 | 0.0 | 1.0 | 0.00 | 0.00 | 0.00 | 42 | 1010.6 |
| 20260510011652 | 77 | 137 | 2.0 | 2.0 | 0.00 | 0.00 | 0.00 | 41 | 1010.5 |
| 20260510011148 | 77 | 57 | 1.0 | 1.0 | 0.00 | 0.00 | 0.00 | 42 | 1010.7 |
| 20260510010644 | 78 | 32 | 1.0 | 1.0 | 0.00 | 0.00 | 0.00 | 43 | 1010.6 |
| 20260510010141 | 78 | 67 | 2.0 | 2.0 | 0.00 | 0.00 | 0.00 | 44 | 1010.4 |
| 20260510005637 | 78 | 24 | 0.0 | 1.0 | 0.00 | 0.00 | 0.00 | 44 | 1010.4 |
| 20260510005134 | 78 | 33 | 0.0 | 0.0 | 0.00 | 0.00 | 0.00 | 44 | 1010.3 |
| 20260510004633 | 78 | 154 | 2.0 | 2.0 | 0.00 | 0.00 | 0.00 | 43 | 1010.5 |
| 20260510004131 | 79 | 134 | 1.0 | 2.0 | 0.00 | 0.00 | 0.00 | 43 | 1010.3 |
| 20260510003627 | 79 | 115 | 3.0 | 3.0 | 0.00 | 0.00 | 0.00 | 43 | 1010.3 |
| 20260510003123 | 79 | 138 | 2.0 | 2.0 | 0.00 | 0.00 | 0.00 | 43 | 1010.3 |
| 20260510002618 | 79 | 163 | 2.0 | 3.0 | 0.00 | 0.00 | 0.00 | 42 | 1010.2 |
| 20260510002115 | 79 | 148 | 2.0 | 2.0 | 0.00 | 0.00 | 0.00 | 41 | 1010.4 |
| 20260510001612 | 79 | 157 | 3.0 | 6.0 | 0.00 | 0.00 | 0.00 | 40 | 1010.2 |
| 20260510001111 | 80 | 165 | 5.0 | 6.0 | 0.00 | 0.00 | 0.00 | 39 | 1010.2 |
| 20260510000611 | 80 | 183 | 4.0 | 4.0 | 0.00 | 0.00 | 0.00 | 37 | 1010.2 |
| 20260510000108 | 80 | 135 | 5.0 | 7.0 | 0.00 | 0.00 | 0.00 | 35 | 1010.3 |
| 20260509235604 | 80 | 148 | 2.0 | 3.0 | 0.00 | 0.00 | 0.00 | 35 | 1010.2 |
| 20260509235101 | 80 | 98 | 3.0 | 4.0 | 0.00 | 0.00 | 0.00 | 34 | 1010.3 |
| 20260509234557 | 81 | 71 | 2.0 | 2.0 | 0.00 | 0.00 | 0.00 | 33 | 1010.3 |
| 20260509234055 | 81 | 165 | 1.0 | 2.0 | 0.00 | 0.00 | 0.00 | 33 | 1010.4 |
| 20260509233552 | 81 | 156 | 3.0 | 4.0 | 0.00 | 0.00 | 0.00 | 33 | 1010.4 |
| 20260509233050 | 81 | 140 | 3.0 | 3.0 | 0.00 | 0.00 | 0.00 | 32 | 1010.6 |
| 20260509232546 | 81 | 38 | 2.0 | 3.0 | 0.00 | 0.00 | 0.00 | 33 | 1010.4 |
| 20260509232043 | 82 | 150 | 4.0 | 6.0 | 0.00 | 0.00 | 0.00 | 32 | 1010.3 |
| 20260509231539 | 82 | 25 | 0.0 | 1.0 | 0.00 | 0.00 | 0.00 | 34 | 1010.5 |
| 20260509231037 | 82 | 196 | 2.0 | 3.0 | 0.00 | 0.00 | 0.00 | 34 | 1010.4 |
| 20260509230533 | 82 | 65 | 1.0 | 2.0 | 0.00 | 0.00 | 0.00 | 36 | 1010.4 |
| 20260509230031 | 82 | 150 | 5.0 | 7.0 | 0.00 | 0.00 | 0.00 | 34 | 1010.5 |
| 20260509225526 | 82 | 37 | 2.0 | 2.0 | 0.00 | 0.00 | 0.00 | 35 | 1010.6 |
| 20260509225022 | 82 | 116 | 1.0 | 2.0 | 0.00 | 0.00 | 0.00 | 36 | 1010.6 |
| 20260509224518 | 82 | 195 | 3.0 | 3.0 | 0.00 | 0.00 | 0.00 | 34 | 1010.6 |
| 20260509224014 | 82 | 35 | 0.0 | 1.0 | 0.00 | 0.00 | 0.00 | 35 | 1010.6 |
| 20260509223511 | 82 | 166 | 5.0 | 7.0 | 0.00 | 0.00 | 0.00 | 34 | 1010.5 |
| 20260509223010 | 83 | 137 | 4.0 | 4.0 | 0.00 | 0.00 | 0.00 | 35 | 1010.6 |
| 20260509222505 | 83 | 145 | 2.0 | 2.0 | 0.00 | 0.00 | 0.00 | 33 | 1010.6 |
| 20260509222001 | 82 | 11 | 0.0 | 0.0 | 0.00 | 0.00 | 0.00 | 30 | 1010.6 |
| 20260509221457 | 83 | 165 | 6.0 | 7.0 | 0.00 | 0.00 | 0.00 | 28 | 1010.6 |
| 20260509220953 | 83 | 138 | 3.0 | 3.0 | 0.00 | 0.00 | 0.00 | 33 | 1010.7 |
| 20260509220449 | 83 | 96 | 3.0 | 3.0 | 0.00 | 0.00 | 0.00 | 32 | 1010.6 |
| 20260509215945 | 83 | 159 | 2.0 | 3.0 | 0.00 | 0.00 | 0.00 | 33 | 1010.7 |
| 20260509215440 | 83 | 117 | 3.0 | 6.0 | 0.00 | 0.00 | 0.00 | 33 | 1011.0 |
| 20260509214938 | 83 | 357 | 1.0 | 2.0 | 0.00 | 0.00 | 0.00 | 36 | 1010.8 |
| 20260509214435 | 83 | 94 | 2.0 | 3.0 | 0.00 | 0.00 | 0.00 | 33 | 1011.0 |
| 20260509213932 | 82 | 45 | 1.0 | 2.0 | 0.00 | 0.00 | 0.00 | 30 | 1011.0 |
| 20260509213428 | 83 | 81 | 5.0 | 7.0 | 0.00 | 0.00 | 0.00 | 27 | 1011.2 |
| 20260509212926 | 84 | 186 | 4.0 | 6.0 | 0.00 | 0.00 | 0.00 | 30 | 1011.1 |
| 20260509212423 | 83 | 61 | 1.0 | 2.0 | 0.00 | 0.00 | 0.00 | 30 | 1011.1 |
| 20260509211919 | 83 | 93 | 2.0 | 2.0 | 0.00 | 0.00 | 0.00 | 31 | 1011.2 |
| 20260509211415 | 84 | 60 | 4.0 | 6.0 | 0.00 | 0.00 | 0.00 | 30 | 1011.1 |
| 20260509210911 | 83 | 27 | 2.0 | 2.0 | 0.00 | 0.00 | 0.00 | 32 | 1011.4 |
| 20260509210409 | 83 | 182 | 4.0 | 4.0 | 0.00 | 0.00 | 0.00 | 30 | 1011.3 |
| 20260509205904 | 84 | 34 | 0.0 | 1.0 | 0.00 | 0.00 | 0.00 | 32 | 1011.5 |
| 20260509205403 | 84 | 334 | 0.0 | 0.0 | 0.00 | 0.00 | 0.00 | 31 | 1011.6 |
| 20260509204900 | 84 | 130 | 2.0 | 2.0 | 0.00 | 0.00 | 0.00 | 29 | 1011.6 |
| 20260509204356 | 83 | 102 | 2.0 | 3.0 | 0.00 | 0.00 | 0.00 | 26 | 1011.6 |
| 20260509203853 | 84 | 173 | 2.0 | 4.0 | 0.00 | 0.00 | 0.00 | 30 | 1011.6 |
| 20260509203349 | 84 | 84 | 2.0 | 3.0 | 0.00 | 0.00 | 0.00 | 30 | 1011.6 |
| 20260509202846 | 84 | 346 | 0.0 | 0.0 | 0.00 | 0.00 | 0.00 | 31 | 1011.7 |
| 20260509202342 | 83 | 157 | 4.0 | 6.0 | 0.00 | 0.00 | 0.00 | 31 | 1011.6 |
| 20260509201837 | 83 | 114 | 1.0 | 2.0 | 0.00 | 0.00 | 0.00 | 34 | 1011.6 |
| 20260509201333 | 83 | 135 | 3.0 | 6.0 | 0.00 | 0.00 | 0.00 | 33 | 1011.7 |
| 20260509200830 | 84 | 24 | 2.0 | 3.0 | 0.00 | 0.00 | 0.00 | 34 | 1011.7 |
| 20260509200325 | 83 | 48 | 1.0 | 1.0 | 0.00 | 0.00 | 0.00 | 33 | 1011.9 |
| 20260509195822 | 83 | 26 | 1.0 | 1.0 | 0.00 | 0.00 | 0.00 | 31 | 1011.8 |
| 20260509195322 | 83 | 108 | 2.0 | 3.0 | 0.00 | 0.00 | 0.00 | 33 | 1012.1 |
| 20260509194816 | 82 | 53 | 2.0 | 2.0 | 0.00 | 0.00 | 0.00 | 31 | 1012.1 |
| 20260509194312 | 82 | 51 | 1.0 | 2.0 | 0.00 | 0.00 | 0.00 | 30 | 1012.2 |
| 20260509193809 | 83 | 66 | 3.0 | 4.0 | 0.00 | 0.00 | 0.00 | 29 | 1012.1 |
| 20260509193304 | 83 | 182 | 4.0 | 6.0 | 0.00 | 0.00 | 0.00 | 29 | 1012.2 |
| 20260509192800 | 83 | 131 | 2.0 | 3.0 | 0.00 | 0.00 | 0.00 | 34 | 1012.2 |
| 20260509192256 | 82 | 248 | 3.0 | 4.0 | 0.00 | 0.00 | 0.00 | 33 | 1012.0 |
| 20260509191751 | 82 | 31 | 0.0 | 1.0 | 0.00 | 0.00 | 0.00 | 33 | 1012.1 |
| 20260509191248 | 83 | 174 | 3.0 | 6.0 | 0.00 | 0.00 | 0.00 | 34 | 1012.1 |
| 20260509190743 | 83 | 184 | 4.0 | 6.0 | 0.00 | 0.00 | 0.00 | 33 | 1012.2 |
| 20260509190241 | 82 | 3 | 0.0 | 1.0 | 0.00 | 0.00 | 0.00 | 32 | 1012.2 |
| 20260509185738 | 82 | 115 | 4.0 | 4.0 | 0.00 | 0.00 | 0.00 | 34 | 1012.2 |
| 20260509185234 | 82 | 57 | 0.0 | 1.0 | 0.00 | 0.00 | 0.00 | 34 | 1012.1 |
| 20260509184732 | 81 | 50 | 0.0 | 1.0 | 0.00 | 0.00 | 0.00 | 38 | 1012.2 |
| 20260509184229 | 82 | 42 | 4.0 | 4.0 | 0.00 | 0.00 | 0.00 | 38 | 1012.2 |
| 20260509183725 | 82 | 121 | 3.0 | 4.0 | 0.00 | 0.00 | 0.00 | 39 | 1012.4 |
| 20260509183221 | 83 | 143 | 4.0 | 4.0 | 0.00 | 0.00 | 0.00 | 38 | 1012.3 |
| 20260509182716 | 82 | 344 | 1.0 | 1.0 | 0.00 | 0.00 | 0.00 | 42 | 1012.5 |
| 20260509182214 | 83 | 177 | 1.0 | 1.0 | 0.00 | 0.00 | 0.00 | 43 | 1012.6 |
| 20260509181712 | 83 | 35 | 2.0 | 2.0 | 0.00 | 0.00 | 0.00 | 40 | 1012.6 |
| 20260509181209 | 83 | 15 | 1.0 | 2.0 | 0.00 | 0.00 | 0.00 | 44 | 1012.5 |
| 20260509180706 | 82 | 357 | 0.0 | 0.0 | 0.00 | 0.00 | 0.00 | 46 | 1012.7 |
| 20260509180202 | 82 | 232 | 1.0 | 1.0 | 0.00 | 0.00 | 0.00 | 41 | 1012.6 |
| 20260509175659 | 81 | 2 | 0.0 | 0.0 | 0.00 | 0.00 | 0.00 | 45 | 1012.8 |
| 20260509175155 | 81 | 301 | 1.0 | 2.0 | 0.00 | 0.00 | 0.00 | 45 | 1012.9 |
| 20260509174651 | 81 | 291 | 1.0 | 2.0 | 0.00 | 0.00 | 0.00 | 45 | 1012.8 |
| 20260509174150 | 81 | 245 | 2.0 | 3.0 | 0.00 | 0.00 | 0.00 | 49 | 1012.9 |
| 20260509173647 | 80 | 320 | 2.0 | 2.0 | 0.00 | 0.00 | 0.00 | 52 | 1012.9 |
| 20260509173142 | 80 | 251 | 2.0 | 3.0 | 0.00 | 0.00 | 0.00 | 53 | 1013.3 |
| 20260509172639 | 80 | 323 | 1.0 | 1.0 | 0.00 | 0.00 | 0.00 | 53 | 1013.1 |
| 20260509172136 | 79 | 101 | 0.0 | 1.0 | 0.00 | 0.00 | 0.00 | 58 | 1013.1 |
| 20260509171631 | 78 | 31 | 1.0 | 1.0 | 0.00 | 0.00 | 0.00 | 57 | 1013.1 |
| 20260509171128 | 78 | 253 | 3.0 | 3.0 | 0.00 | 0.00 | 0.00 | 54 | 1013.1 |
| 20260509170624 | 79 | 38 | 1.0 | 1.0 | 0.00 | 0.00 | 0.00 | 58 | 1013.1 |
| 20260509170120 | 79 | 340 | 2.0 | 2.0 | 0.00 | 0.00 | 0.00 | 61 | 1013.1 |
| 20260509165619 | 78 | 327 | 0.0 | 1.0 | 0.00 | 0.00 | 0.00 | 60 | 1013.2 |
| 20260509165115 | 79 | 0 | 1.0 | 1.0 | 0.00 | 0.00 | 0.00 | 62 | 1013.1 |
| 20260509164611 | 78 | 247 | 2.0 | 3.0 | 0.00 | 0.00 | 0.00 | 57 | 1013.2 |
| 20260509164106 | 79 | 135 | 1.0 | 2.0 | 0.00 | 0.00 | 0.00 | 60 | 1013.3 |
| 20260509163605 | 78 | 29 | 0.0 | 0.0 | 0.00 | 0.00 | 0.00 | 58 | 1013.4 |
| 20260509163100 | 78 | 161 | 3.0 | 4.0 | 0.00 | 0.00 | 0.00 | 57 | 1013.4 |
| 20260509162557 | 77 | 62 | 0.0 | 0.0 | 0.00 | 0.00 | 0.00 | 61 | 1013.3 |
| 20260509162053 | 77 | 14 | 1.0 | 1.0 | 0.00 | 0.00 | 0.00 | 62 | 1013.4 |
| 20260509161545 | 76 | 9 | 2.0 | 2.0 | 0.00 | 0.00 | 0.00 | 64 | 1013.1 |
| 20260509161045 | 76 | 81 | 1.0 | 1.0 | 0.00 | 0.00 | 0.00 | 65 | 1013.3 |
| 20260509160541 | 76 | 50 | 1.0 | 1.0 | 0.00 | 0.00 | 0.00 | 68 | 1013.1 |
| 20260509160036 | 75 | 39 | 1.0 | 1.0 | 0.00 | 0.00 | 0.00 | 69 | 1012.8 |
| 20260509155532 | 74 | 66 | 2.0 | 2.0 | 0.00 | 0.00 | 0.00 | 67 | 1013.0 |
| 20260509155029 | 74 | 297 | 0.0 | 1.0 | 0.00 | 0.00 | 0.00 | 70 | 1012.9 |
| 20260509154525 | 73 | 305 | 2.0 | 3.0 | 0.00 | 0.00 | 0.00 | 70 | 1012.8 |
| 20260509154023 | 73 | 12 | 1.0 | 1.0 | 0.00 | 0.00 | 0.00 | 72 | 1012.6 |
| 20260509153520 | 73 | 58 | 0.0 | 1.0 | 0.00 | 0.00 | 0.00 | 72 | 1012.9 |
| 20260509153016 | 72 | 56 | 0.0 | 0.0 | 0.00 | 0.00 | 0.00 | 74 | 1012.9 |
| 20260509152512 | 71 | 137 | 1.0 | 2.0 | 0.00 | 0.00 | 0.00 | 75 | 1012.9 |
| 20260509152009 | 70 | 35 | 0.0 | 1.0 | 0.00 | 0.00 | 0.00 | 78 | 1013.0 |
| 20260509151506 | 70 | 48 | 0.0 | 0.0 | 0.00 | 0.00 | 0.00 | 77 | 1012.9 |
| 20260509151004 | 69 | 40 | 0.0 | 0.0 | 0.00 | 0.00 | 0.00 | 78 | 1012.9 |
| 20260509150501 | 68 | 18 | 0.0 | 0.0 | 0.00 | 0.00 | 0.00 | 82 | 1013.0 |
| 20260509145959 | 68 | 282 | 1.0 | 2.0 | 0.00 | 0.00 | 0.00 | 81 | 1012.9 |
| 20260509145454 | 68 | 232 | 1.0 | 2.0 | 0.00 | 0.00 | 0.00 | 81 | 1012.9 |
| 20260509144949 | 67 | 344 | 1.0 | 1.0 | 0.00 | 0.00 | 0.00 | 83 | 1013.1 |
| 20260509144447 | 67 | 335 | 1.0 | 2.0 | 0.00 | 0.00 | 0.00 | 86 | 1013.0 |
| 20260509143944 | 66 | 338 | 1.0 | 1.0 | 0.00 | 0.00 | 0.00 | 86 | 1013.0 |
| 20260509143441 | 66 | 235 | 2.0 | 2.0 | 0.00 | 0.00 | 0.00 | 84 | 1012.8 |
| 20260509142937 | 66 | 195 | 2.0 | 2.0 | 0.00 | 0.00 | 0.00 | 85 | 1012.9 |
| 20260509142434 | 65 | 11 | 0.0 | 0.0 | 0.00 | 0.00 | 0.00 | 88 | 1013.0 |
| 20260509141929 | 65 | 1 | 0.0 | 0.0 | 0.00 | 0.00 | 0.00 | 88 | 1012.9 |
| 20260509141426 | 65 | 15 | 0.0 | 0.0 | 0.00 | 0.00 | 0.00 | 88 | 1012.8 |
| 20260509140923 | 64 | 356 | 1.0 | 1.0 | 0.00 | 0.00 | 0.00 | 88 | 1012.8 |
| 20260509140419 | 64 | 8 | 0.0 | 0.0 | 0.00 | 0.00 | 0.00 | 89 | 1012.7 |
| 20260509135918 | 64 | 2 | 0.0 | 0.0 | 0.00 | 0.00 | 0.00 | 91 | 1012.6 |
| 20260509135415 | 63 | 317 | 1.0 | 1.0 | 0.00 | 0.00 | 0.00 | 90 | 1012.8 |
| 20260509134913 | 63 | 339 | 0.0 | 1.0 | 0.00 | 0.00 | 0.00 | 90 | 1012.8 |
| 20260509134410 | 63 | 6 | 0.0 | 1.0 | 0.00 | 0.00 | 0.00 | 91 | 1012.8 |
| 20260509133907 | 63 | 294 | 1.0 | 2.0 | 0.00 | 0.00 | 0.00 | 91 | 1012.7 |
| 20260509133403 | 63 | 282 | 1.0 | 1.0 | 0.00 | 0.00 | 0.00 | 91 | 1012.6 |
| 20260509132902 | 63 | 13 | 0.0 | 0.0 | 0.00 | 0.00 | 0.00 | 92 | 1012.6 |
| 20260509132400 | 63 | 354 | 1.0 | 2.0 | 0.00 | 0.00 | 0.00 | 92 | 1012.4 |
| 20260509131857 | 63 | 41 | 0.0 | 0.0 | 0.00 | 0.00 | 0.00 | 92 | 1012.2 |
| 20260509131353 | 62 | 49 | 0.0 | 0.0 | 0.00 | 0.00 | 0.00 | 94 | 1012.0 |
| 20260509130850 | 62 | 68 | 0.0 | 0.0 | 0.00 | 0.00 | 0.00 | 94 | 1012.1 |
| 20260509130345 | 61 | 69 | 0.0 | 0.0 | 0.00 | 0.00 | 0.00 | 95 | 1012.2 |
| 20260509125843 | 61 | 49 | 1.0 | 1.0 | 0.00 | 0.00 | 0.00 | 95 | 1012.1 |
| 20260509125339 | 61 | 72 | 0.0 | 0.0 | 0.00 | 0.00 | 0.00 | 96 | 1012.1 |
| 20260509124835 | 60 | 63 | 0.0 | 0.0 | 0.00 | 0.00 | 0.00 | 97 | 1012.2 |
| 20260509124332 | 60 | 51 | 0.0 | 0.0 | 0.00 | 0.00 | 0.00 | 97 | 1012.2 |
| 20260509123830 | 60 | 57 | 0.0 | 1.0 | 0.00 | 0.00 | 0.00 | 98 | 1012.2 |
| 20260509123327 | 60 | 45 | 0.0 | 0.0 | 0.00 | 0.00 | 0.00 | 98 | 1012.1 |
| 20260509122822 | 60 | 58 | 0.0 | 0.0 | 0.00 | 0.00 | 0.00 | 98 | 1011.9 |
| 20260509122320 | 59 | 32 | 0.0 | 0.0 | 0.00 | 0.00 | 0.00 | 99 | 1011.9 |
| 20260509121817 | 58 | 24 | 0.0 | 0.0 | 0.00 | 0.00 | 0.00 | 99 | 1011.8 |
| 20260509121314 | 57 | 18 | 0.0 | 0.0 | 0.00 | 0.00 | 0.00 | 99 | 1011.7 |
| 20260509120812 | 56 | 12 | 0.0 | 0.0 | 0.00 | 0.00 | 0.00 | 98 | 1011.7 |